sensor_id;sensor_type;location;lat;lon;timestamp;P1;durP1;ratioP1;P2;durP2;ratioP2
59302;SDS011;45074;52.764;6.896;2023-04-24T00:00:20;3.65;;;2.45;;
59302;SDS011;45074;52.764;6.896;2023-04-24T00:02:46;4.90;;;2.83;;
59302;SDS011;45074;52.764;6.896;2023-04-24T00:05:13;4.45;;;2.75;;
59302;SDS011;45074;52.764;6.896;2023-04-24T00:07:40;4.97;;;3.22;;
59302;SDS011;45074;52.764;6.896;2023-04-24T00:10:06;5.25;;;3.17;;
59302;SDS011;45074;52.764;6.896;2023-04-24T00:12:33;5.75;;;3.60;;
59302;SDS011;45074;52.764;6.896;2023-04-24T00:14:59;5.25;;;3.42;;
59302;SDS011;45074;52.764;6.896;2023-04-24T00:17:25;5.47;;;3.70;;
59302;SDS011;45074;52.764;6.896;2023-04-24T00:19:51;5.13;;;3.53;;
59302;SDS011;45074;52.764;6.896;2023-04-24T00:22:23;5.65;;;3.60;;
59302;SDS011;45074;52.764;6.896;2023-04-24T00:24:53;5.22;;;3.42;;
59302;SDS011;45074;52.764;6.896;2023-04-24T00:27:19;6.90;;;3.47;;
59302;SDS011;45074;52.764;6.896;2023-04-24T00:29:45;5.32;;;2.83;;
59302;SDS011;45074;52.764;6.896;2023-04-24T00:32:11;4.55;;;3.15;;
59302;SDS011;45074;52.764;6.896;2023-04-24T00:34:37;4.18;;;2.88;;
59302;SDS011;45074;52.764;6.896;2023-04-24T00:37:03;4.20;;;2.70;;
59302;SDS011;45074;52.764;6.896;2023-04-24T00:39:30;4.03;;;2.40;;
59302;SDS011;45074;52.764;6.896;2023-04-24T00:41:56;4.05;;;2.20;;
59302;SDS011;45074;52.764;6.896;2023-04-24T00:44:22;2.65;;;1.98;;
59302;SDS011;45074;52.764;6.896;2023-04-24T00:46:49;3.70;;;1.95;;
59302;SDS011;45074;52.764;6.896;2023-04-24T00:49:19;2.33;;;2.00;;
59302;SDS011;45074;52.764;6.896;2023-04-24T00:51:45;2.55;;;2.10;;
59302;SDS011;45074;52.764;6.896;2023-04-24T00:54:12;3.90;;;1.88;;
59302;SDS011;45074;52.764;6.896;2023-04-24T00:56:38;2.67;;;2.17;;
59302;SDS011;45074;52.764;6.896;2023-04-24T00:59:04;3.45;;;2.40;;
59302;SDS011;45074;52.764;6.896;2023-04-24T01:01:30;4.15;;;2.60;;
59302;SDS011;45074;52.764;6.896;2023-04-24T01:03:57;3.08;;;2.50;;
59302;SDS011;45074;52.764;6.896;2023-04-24T01:06:24;3.85;;;2.90;;
59302;SDS011;45074;52.764;6.896;2023-04-24T01:08:54;4.10;;;2.65;;
59302;SDS011;45074;52.764;6.896;2023-04-24T01:11:21;4.07;;;3.08;;
59302;SDS011;45074;52.764;6.896;2023-04-24T01:13:47;5.05;;;3.13;;
59302;SDS011;45074;52.764;6.896;2023-04-24T01:16:13;4.43;;;2.95;;
59302;SDS011;45074;52.764;6.896;2023-04-24T01:18:42;5.28;;;3.10;;
59302;SDS011;45074;52.764;6.896;2023-04-24T01:21:08;4.97;;;3.30;;
59302;SDS011;45074;52.764;6.896;2023-04-24T01:23:34;4.63;;;3.05;;
59302;SDS011;45074;52.764;6.896;2023-04-24T01:26:00;7.28;;;3.60;;
59302;SDS011;45074;52.764;6.896;2023-04-24T01:28:26;6.43;;;3.40;;
59302;SDS011;45074;52.764;6.896;2023-04-24T01:30:52;7.13;;;3.60;;
59302;SDS011;45074;52.764;6.896;2023-04-24T01:33:20;5.40;;;3.80;;
59302;SDS011;45074;52.764;6.896;2023-04-24T01:35:47;6.28;;;3.97;;
59302;SDS011;45074;52.764;6.896;2023-04-24T01:38:13;6.60;;;3.85;;
59302;SDS011;45074;52.764;6.896;2023-04-24T01:40:40;6.30;;;4.32;;
59302;SDS011;45074;52.764;6.896;2023-04-24T01:43:06;7.40;;;4.85;;
59302;SDS011;45074;52.764;6.896;2023-04-24T01:45:32;7.57;;;4.90;;
59302;SDS011;45074;52.764;6.896;2023-04-24T01:47:58;7.93;;;5.50;;
59302;SDS011;45074;52.764;6.896;2023-04-24T01:50:24;9.27;;;5.90;;
59302;SDS011;45074;52.764;6.896;2023-04-24T01:52:50;9.65;;;5.53;;
59302;SDS011;45074;52.764;6.896;2023-04-24T01:55:16;9.60;;;5.75;;
59302;SDS011;45074;52.764;6.896;2023-04-24T01:57:42;10.02;;;6.68;;
59302;SDS011;45074;52.764;6.896;2023-04-24T02:00:08;9.57;;;6.80;;
59302;SDS011;45074;52.764;6.896;2023-04-24T02:02:36;10.18;;;7.43;;
59302;SDS011;45074;52.764;6.896;2023-04-24T02:05:05;9.82;;;6.63;;
59302;SDS011;45074;52.764;6.896;2023-04-24T02:07:31;10.35;;;7.30;;
59302;SDS011;45074;52.764;6.896;2023-04-24T02:09:58;9.75;;;6.97;;
59302;SDS011;45074;52.764;6.896;2023-04-24T02:12:23;10.00;;;7.05;;
59302;SDS011;45074;52.764;6.896;2023-04-24T02:14:49;10.32;;;7.10;;
59302;SDS011;45074;52.764;6.896;2023-04-24T02:17:15;9.60;;;6.65;;
59302;SDS011;45074;52.764;6.896;2023-04-24T02:19:41;8.60;;;6.20;;
59302;SDS011;45074;52.764;6.896;2023-04-24T02:22:07;9.00;;;6.18;;
59302;SDS011;45074;52.764;6.896;2023-04-24T02:24:33;10.30;;;6.32;;
59302;SDS011;45074;52.764;6.896;2023-04-24T02:26:59;8.90;;;5.80;;
59302;SDS011;45074;52.764;6.896;2023-04-24T02:29:27;8.32;;;6.03;;
59302;SDS011;45074;52.764;6.896;2023-04-24T02:31:53;10.10;;;6.35;;
59302;SDS011;45074;52.764;6.896;2023-04-24T02:34:19;8.75;;;6.35;;
59302;SDS011;45074;52.764;6.896;2023-04-24T02:36:47;9.02;;;5.72;;
59302;SDS011;45074;52.764;6.896;2023-04-24T02:39:13;10.13;;;6.10;;
59302;SDS011;45074;52.764;6.896;2023-04-24T02:41:41;8.77;;;6.18;;
59302;SDS011;45074;52.764;6.896;2023-04-24T02:44:07;8.65;;;5.72;;
59302;SDS011;45074;52.764;6.896;2023-04-24T02:46:33;8.48;;;5.38;;
59302;SDS011;45074;52.764;6.896;2023-04-24T02:48:59;7.72;;;5.20;;
59302;SDS011;45074;52.764;6.896;2023-04-24T02:51:25;8.20;;;5.05;;
59302;SDS011;45074;52.764;6.896;2023-04-24T02:53:52;8.07;;;5.15;;
59302;SDS011;45074;52.764;6.896;2023-04-24T02:56:18;7.25;;;5.05;;
59302;SDS011;45074;52.764;6.896;2023-04-24T02:58:44;6.80;;;4.82;;
59302;SDS011;45074;52.764;6.896;2023-04-24T03:01:10;7.45;;;4.93;;
59302;SDS011;45074;52.764;6.896;2023-04-24T03:03:36;7.20;;;4.88;;
59302;SDS011;45074;52.764;6.896;2023-04-24T03:06:03;7.93;;;4.82;;
59302;SDS011;45074;52.764;6.896;2023-04-24T03:08:30;7.47;;;4.82;;
59302;SDS011;45074;52.764;6.896;2023-04-24T03:10:56;7.53;;;4.68;;
59302;SDS011;45074;52.764;6.896;2023-04-24T03:13:22;7.65;;;4.95;;
59302;SDS011;45074;52.764;6.896;2023-04-24T03:15:48;6.82;;;4.30;;
59302;SDS011;45074;52.764;6.896;2023-04-24T03:18:15;6.43;;;4.47;;
59302;SDS011;45074;52.764;6.896;2023-04-24T03:20:41;8.15;;;5.03;;
59302;SDS011;45074;52.764;6.896;2023-04-24T03:23:07;6.82;;;4.82;;
59302;SDS011;45074;52.764;6.896;2023-04-24T03:25:33;7.20;;;4.93;;
59302;SDS011;45074;52.764;6.896;2023-04-24T03:27:59;8.07;;;5.30;;
59302;SDS011;45074;52.764;6.896;2023-04-24T03:30:25;9.02;;;5.25;;
59302;SDS011;45074;52.764;6.896;2023-04-24T03:32:51;8.02;;;5.30;;
59302;SDS011;45074;52.764;6.896;2023-04-24T03:35:17;8.15;;;5.03;;
59302;SDS011;45074;52.764;6.896;2023-04-24T03:37:43;8.27;;;5.43;;
59302;SDS011;45074;52.764;6.896;2023-04-24T03:40:09;7.90;;;5.55;;
59302;SDS011;45074;52.764;6.896;2023-04-24T03:42:35;7.65;;;5.25;;
59302;SDS011;45074;52.764;6.896;2023-04-24T03:45:01;7.82;;;5.53;;
59302;SDS011;45074;52.764;6.896;2023-04-24T03:47:27;10.60;;;5.70;;
59302;SDS011;45074;52.764;6.896;2023-04-24T03:49:53;7.95;;;5.30;;
59302;SDS011;45074;52.764;6.896;2023-04-24T03:52:20;7.43;;;5.18;;
59302;SDS011;45074;52.764;6.896;2023-04-24T03:54:46;8.55;;;5.30;;
59302;SDS011;45074;52.764;6.896;2023-04-24T03:57:12;8.38;;;5.65;;
59302;SDS011;45074;52.764;6.896;2023-04-24T03:59:38;8.90;;;5.50;;
59302;SDS011;45074;52.764;6.896;2023-04-24T04:02:04;7.65;;;5.25;;
59302;SDS011;45074;52.764;6.896;2023-04-24T04:04:30;9.07;;;5.35;;
59302;SDS011;45074;52.764;6.896;2023-04-24T04:06:56;7.13;;;4.82;;
59302;SDS011;45074;52.764;6.896;2023-04-24T04:09:26;8.95;;;5.20;;
59302;SDS011;45074;52.764;6.896;2023-04-24T04:11:52;7.93;;;4.78;;
59302;SDS011;45074;52.764;6.896;2023-04-24T04:14:18;7.95;;;4.90;;
59302;SDS011;45074;52.764;6.896;2023-04-24T04:16:44;7.80;;;5.15;;
59302;SDS011;45074;52.764;6.896;2023-04-24T04:19:10;9.60;;;5.45;;
59302;SDS011;45074;52.764;6.896;2023-04-24T04:21:36;8.00;;;5.75;;
59302;SDS011;45074;52.764;6.896;2023-04-24T04:24:02;8.80;;;6.45;;
59302;SDS011;45074;52.764;6.896;2023-04-24T04:26:30;9.43;;;5.80;;
59302;SDS011;45074;52.764;6.896;2023-04-24T04:28:58;9.20;;;6.20;;
59302;SDS011;45074;52.764;6.896;2023-04-24T04:31:25;9.55;;;6.57;;
59302;SDS011;45074;52.764;6.896;2023-04-24T04:33:51;10.02;;;6.65;;
59302;SDS011;45074;52.764;6.896;2023-04-24T04:36:17;9.93;;;6.88;;
59302;SDS011;45074;52.764;6.896;2023-04-24T04:38:43;9.25;;;6.40;;
59302;SDS011;45074;52.764;6.896;2023-04-24T04:41:09;8.95;;;6.40;;
59302;SDS011;45074;52.764;6.896;2023-04-24T04:43:36;11.98;;;6.60;;
59302;SDS011;45074;52.764;6.896;2023-04-24T04:46:03;10.02;;;6.15;;
59302;SDS011;45074;52.764;6.896;2023-04-24T04:48:29;9.90;;;6.50;;
59302;SDS011;45074;52.764;6.896;2023-04-24T04:50:56;9.02;;;6.43;;
59302;SDS011;45074;52.764;6.896;2023-04-24T04:53:23;10.48;;;6.38;;
59302;SDS011;45074;52.764;6.896;2023-04-24T04:55:49;10.02;;;6.93;;
59302;SDS011;45074;52.764;6.896;2023-04-24T04:58:15;10.02;;;6.57;;
59302;SDS011;45074;52.764;6.896;2023-04-24T05:00:41;9.55;;;6.30;;
59302;SDS011;45074;52.764;6.896;2023-04-24T05:03:07;9.70;;;6.18;;
59302;SDS011;45074;52.764;6.896;2023-04-24T05:05:33;9.82;;;6.60;;
59302;SDS011;45074;52.764;6.896;2023-04-24T05:07:59;9.73;;;6.47;;
59302;SDS011;45074;52.764;6.896;2023-04-24T05:10:25;9.25;;;6.68;;
59302;SDS011;45074;52.764;6.896;2023-04-24T05:12:51;9.60;;;6.43;;
59302;SDS011;45074;52.764;6.896;2023-04-24T05:15:17;9.82;;;6.47;;
59302;SDS011;45074;52.764;6.896;2023-04-24T05:17:43;9.95;;;6.88;;
59302;SDS011;45074;52.764;6.896;2023-04-24T05:20:09;9.73;;;6.53;;
59302;SDS011;45074;52.764;6.896;2023-04-24T05:22:35;8.70;;;6.13;;
59302;SDS011;45074;52.764;6.896;2023-04-24T05:25:01;10.88;;;5.95;;
59302;SDS011;45074;52.764;6.896;2023-04-24T05:27:27;8.38;;;5.78;;
59302;SDS011;45074;52.764;6.896;2023-04-24T05:29:54;8.50;;;5.60;;
59302;SDS011;45074;52.764;6.896;2023-04-24T05:32:20;7.43;;;4.70;;
59302;SDS011;45074;52.764;6.896;2023-04-24T05:34:46;7.65;;;4.40;;
59302;SDS011;45074;52.764;6.896;2023-04-24T05:37:12;7.60;;;4.30;;
59302;SDS011;45074;52.764;6.896;2023-04-24T05:39:38;6.95;;;4.10;;
59302;SDS011;45074;52.764;6.896;2023-04-24T05:42:06;6.45;;;3.90;;
59302;SDS011;45074;52.764;6.896;2023-04-24T05:44:32;5.80;;;3.60;;
59302;SDS011;45074;52.764;6.896;2023-04-24T05:46:58;7.47;;;4.00;;
59302;SDS011;45074;52.764;6.896;2023-04-24T05:49:24;5.78;;;3.42;;
59302;SDS011;45074;52.764;6.896;2023-04-24T05:51:50;5.95;;;3.60;;
59302;SDS011;45074;52.764;6.896;2023-04-24T05:54:16;6.75;;;4.00;;
59302;SDS011;45074;52.764;6.896;2023-04-24T05:56:42;7.53;;;3.85;;
59302;SDS011;45074;52.764;6.896;2023-04-24T05:59:08;6.57;;;3.65;;
59302;SDS011;45074;52.764;6.896;2023-04-24T06:01:34;6.75;;;4.10;;
59302;SDS011;45074;52.764;6.896;2023-04-24T06:04:01;6.65;;;3.83;;
59302;SDS011;45074;52.764;6.896;2023-04-24T06:06:28;7.47;;;3.55;;
59302;SDS011;45074;52.764;6.896;2023-04-24T06:08:54;6.35;;;3.55;;
59302;SDS011;45074;52.764;6.896;2023-04-24T06:11:20;4.90;;;2.90;;
59302;SDS011;45074;52.764;6.896;2023-04-24T06:13:47;5.90;;;3.10;;
59302;SDS011;45074;52.764;6.896;2023-04-24T06:16:14;5.18;;;3.00;;
59302;SDS011;45074;52.764;6.896;2023-04-24T06:18:40;5.22;;;2.88;;
59302;SDS011;45074;52.764;6.896;2023-04-24T06:21:06;4.22;;;2.60;;
59302;SDS011;45074;52.764;6.896;2023-04-24T06:23:32;4.80;;;2.80;;
59302;SDS011;45074;52.764;6.896;2023-04-24T06:25:58;5.35;;;3.00;;
59302;SDS011;45074;52.764;6.896;2023-04-24T06:28:24;4.97;;;2.90;;
59302;SDS011;45074;52.764;6.896;2023-04-24T06:30:51;4.60;;;2.65;;
59302;SDS011;45074;52.764;6.896;2023-04-24T06:33:17;4.65;;;2.47;;
59302;SDS011;45074;52.764;6.896;2023-04-24T06:35:43;3.72;;;2.40;;
59302;SDS011;45074;52.764;6.896;2023-04-24T06:38:09;3.80;;;2.25;;
59302;SDS011;45074;52.764;6.896;2023-04-24T06:40:35;3.90;;;2.30;;
59302;SDS011;45074;52.764;6.896;2023-04-24T06:43:01;3.88;;;2.42;;
59302;SDS011;45074;52.764;6.896;2023-04-24T06:45:28;4.22;;;2.58;;
59302;SDS011;45074;52.764;6.896;2023-04-24T06:47:55;5.68;;;2.92;;
59302;SDS011;45074;52.764;6.896;2023-04-24T06:50:21;5.45;;;3.00;;
59302;SDS011;45074;52.764;6.896;2023-04-24T06:52:47;5.13;;;2.90;;
59302;SDS011;45074;52.764;6.896;2023-04-24T06:55:13;6.68;;;3.17;;
59302;SDS011;45074;52.764;6.896;2023-04-24T06:57:41;5.65;;;3.30;;
59302;SDS011;45074;52.764;6.896;2023-04-24T07:00:07;7.28;;;3.28;;
59302;SDS011;45074;52.764;6.896;2023-04-24T07:02:34;7.63;;;3.88;;
59302;SDS011;45074;52.764;6.896;2023-04-24T07:05:00;8.32;;;3.80;;
59302;SDS011;45074;52.764;6.896;2023-04-24T07:07:26;8.95;;;3.63;;
59302;SDS011;45074;52.764;6.896;2023-04-24T07:09:52;8.02;;;3.90;;
59302;SDS011;45074;52.764;6.896;2023-04-24T07:12:19;7.22;;;3.80;;
59302;SDS011;45074;52.764;6.896;2023-04-24T07:14:46;6.72;;;3.70;;
59302;SDS011;45074;52.764;6.896;2023-04-24T07:17:13;6.82;;;3.50;;
59302;SDS011;45074;52.764;6.896;2023-04-24T07:19:39;6.07;;;3.42;;
59302;SDS011;45074;52.764;6.896;2023-04-24T07:22:05;5.60;;;3.17;;
59302;SDS011;45074;52.764;6.896;2023-04-24T07:24:31;6.18;;;3.35;;
59302;SDS011;45074;52.764;6.896;2023-04-24T07:26:57;8.65;;;3.03;;
59302;SDS011;45074;52.764;6.896;2023-04-24T07:29:24;7.88;;;3.50;;
59302;SDS011;45074;52.764;6.896;2023-04-24T07:31:50;6.07;;;3.22;;
59302;SDS011;45074;52.764;6.896;2023-04-24T07:34:16;6.40;;;2.90;;
59302;SDS011;45074;52.764;6.896;2023-04-24T07:36:42;5.93;;;3.08;;
59302;SDS011;45074;52.764;6.896;2023-04-24T07:39:08;4.57;;;2.25;;
59302;SDS011;45074;52.764;6.896;2023-04-24T07:41:34;5.53;;;2.53;;
59302;SDS011;45074;52.764;6.896;2023-04-24T07:44:00;7.28;;;1.90;;
59302;SDS011;45074;52.764;6.896;2023-04-24T07:46:26;5.78;;;2.60;;
59302;SDS011;45074;52.764;6.896;2023-04-24T07:48:54;4.43;;;2.40;;
59302;SDS011;45074;52.764;6.896;2023-04-24T07:51:21;4.80;;;2.47;;
59302;SDS011;45074;52.764;6.896;2023-04-24T07:53:47;4.72;;;2.67;;
59302;SDS011;45074;52.764;6.896;2023-04-24T07:56:13;8.25;;;2.70;;
59302;SDS011;45074;52.764;6.896;2023-04-24T07:58:39;8.43;;;3.25;;
59302;SDS011;45074;52.764;6.896;2023-04-24T08:01:05;8.75;;;3.58;;
59302;SDS011;45074;52.764;6.896;2023-04-24T08:03:31;8.25;;;4.18;;
59302;SDS011;45074;52.764;6.896;2023-04-24T08:05:57;8.30;;;4.07;;
59302;SDS011;45074;52.764;6.896;2023-04-24T08:08:23;10.18;;;4.32;;
59302;SDS011;45074;52.764;6.896;2023-04-24T08:10:49;8.85;;;4.38;;
59302;SDS011;45074;52.764;6.896;2023-04-24T08:13:16;11.52;;;4.40;;
59302;SDS011;45074;52.764;6.896;2023-04-24T08:15:42;6.90;;;4.32;;
59302;SDS011;45074;52.764;6.896;2023-04-24T08:18:08;7.03;;;4.13;;
59302;SDS011;45074;52.764;6.896;2023-04-24T08:20:36;8.68;;;4.00;;
59302;SDS011;45074;52.764;6.896;2023-04-24T08:23:02;8.18;;;4.20;;
59302;SDS011;45074;52.764;6.896;2023-04-24T08:25:28;10.32;;;3.90;;
59302;SDS011;45074;52.764;6.896;2023-04-24T08:27:55;10.55;;;4.10;;
59302;SDS011;45074;52.764;6.896;2023-04-24T08:30:21;9.15;;;3.95;;
59302;SDS011;45074;52.764;6.896;2023-04-24T08:32:47;5.97;;;3.60;;
59302;SDS011;45074;52.764;6.896;2023-04-24T08:35:13;6.43;;;3.75;;
59302;SDS011;45074;52.764;6.896;2023-04-24T08:37:39;5.97;;;3.50;;
59302;SDS011;45074;52.764;6.896;2023-04-24T08:40:06;6.95;;;3.25;;
59302;SDS011;45074;52.764;6.896;2023-04-24T08:42:39;4.82;;;2.60;;
59302;SDS011;45074;52.764;6.896;2023-04-24T08:45:05;5.32;;;2.50;;
59302;SDS011;45074;52.764;6.896;2023-04-24T08:47:31;5.85;;;2.70;;
59302;SDS011;45074;52.764;6.896;2023-04-24T08:49:58;7.50;;;2.80;;
59302;SDS011;45074;52.764;6.896;2023-04-24T08:52:27;7.05;;;2.65;;
59302;SDS011;45074;52.764;6.896;2023-04-24T08:54:54;5.65;;;2.47;;
59302;SDS011;45074;52.764;6.896;2023-04-24T08:57:20;8.50;;;2.90;;
59302;SDS011;45074;52.764;6.896;2023-04-24T08:59:47;5.88;;;2.95;;
59302;SDS011;45074;52.764;6.896;2023-04-24T09:02:13;7.38;;;2.78;;
59302;SDS011;45074;52.764;6.896;2023-04-24T09:04:40;7.03;;;3.85;;
59302;SDS011;45074;52.764;6.896;2023-04-24T09:07:06;9.75;;;5.28;;
59302;SDS011;45074;52.764;6.896;2023-04-24T09:09:32;11.65;;;5.68;;
59302;SDS011;45074;52.764;6.896;2023-04-24T09:11:58;12.52;;;6.68;;
59302;SDS011;45074;52.764;6.896;2023-04-24T09:14:25;13.50;;;6.88;;
59302;SDS011;45074;52.764;6.896;2023-04-24T09:16:51;13.52;;;7.60;;
59302;SDS011;45074;52.764;6.896;2023-04-24T09:19:17;13.85;;;8.30;;
59302;SDS011;45074;52.764;6.896;2023-04-24T09:21:45;14.40;;;7.97;;
59302;SDS011;45074;52.764;6.896;2023-04-24T09:24:21;14.50;;;8.38;;
59302;SDS011;45074;52.764;6.896;2023-04-24T09:26:59;14.63;;;8.30;;
59302;SDS011;45074;52.764;6.896;2023-04-24T09:29:26;15.73;;;8.93;;
59302;SDS011;45074;52.764;6.896;2023-04-24T09:31:53;16.77;;;8.57;;
59302;SDS011;45074;52.764;6.896;2023-04-24T09:34:22;17.35;;;9.93;;
59302;SDS011;45074;52.764;6.896;2023-04-24T09:36:49;14.27;;;9.25;;
59302;SDS011;45074;52.764;6.896;2023-04-24T09:39:15;16.27;;;9.70;;
59302;SDS011;45074;52.764;6.896;2023-04-24T09:41:52;18.13;;;10.70;;
59302;SDS011;45074;52.764;6.896;2023-04-24T09:44:22;17.92;;;11.45;;
59302;SDS011;45074;52.764;6.896;2023-04-24T09:46:56;18.73;;;12.18;;
59302;SDS011;45074;52.764;6.896;2023-04-24T09:49:26;22.08;;;13.68;;
59302;SDS011;45074;52.764;6.896;2023-04-24T09:54:29;22.80;;;13.32;;
59302;SDS011;45074;52.764;6.896;2023-04-24T09:56:55;24.38;;;14.13;;
59302;SDS011;45074;52.764;6.896;2023-04-24T09:59:22;24.92;;;14.18;;
59302;SDS011;45074;52.764;6.896;2023-04-24T10:01:48;23.52;;;14.82;;
59302;SDS011;45074;52.764;6.896;2023-04-24T10:04:16;22.92;;;14.35;;
59302;SDS011;45074;52.764;6.896;2023-04-24T10:06:43;21.10;;;14.13;;
59302;SDS011;45074;52.764;6.896;2023-04-24T10:09:09;24.17;;;13.85;;
59302;SDS011;45074;52.764;6.896;2023-04-24T10:11:42;22.63;;;13.23;;
59302;SDS011;45074;52.764;6.896;2023-04-24T10:14:13;21.10;;;13.02;;
59302;SDS011;45074;52.764;6.896;2023-04-24T10:16:44;19.75;;;13.05;;
59302;SDS011;45074;52.764;6.896;2023-04-24T10:19:12;20.33;;;13.25;;
59302;SDS011;45074;52.764;6.896;2023-04-24T10:21:38;18.77;;;12.20;;
59302;SDS011;45074;52.764;6.896;2023-04-24T10:24:10;19.02;;;12.15;;
59302;SDS011;45074;52.764;6.896;2023-04-24T10:26:38;18.52;;;11.52;;
59302;SDS011;45074;52.764;6.896;2023-04-24T10:29:04;16.67;;;11.05;;
59302;SDS011;45074;52.764;6.896;2023-04-24T10:31:37;16.90;;;11.38;;
59302;SDS011;45074;52.764;6.896;2023-04-24T10:34:07;16.90;;;10.50;;
59302;SDS011;45074;52.764;6.896;2023-04-24T10:36:34;17.02;;;10.82;;
59302;SDS011;45074;52.764;6.896;2023-04-24T10:39:02;19.10;;;10.80;;
59302;SDS011;45074;52.764;6.896;2023-04-24T10:41:36;18.35;;;11.40;;
59302;SDS011;45074;52.764;6.896;2023-04-24T10:46:38;19.75;;;11.02;;
59302;SDS011;45074;52.764;6.896;2023-04-24T10:49:08;19.20;;;10.35;;
59302;SDS011;45074;52.764;6.896;2023-04-24T10:51:43;20.13;;;10.32;;
59302;SDS011;45074;52.764;6.896;2023-04-24T10:56:52;18.08;;;10.27;;
59302;SDS011;45074;52.764;6.896;2023-04-24T10:59:25;17.55;;;10.00;;
59302;SDS011;45074;52.764;6.896;2023-04-24T11:01:55;13.00;;;8.48;;
59302;SDS011;45074;52.764;6.896;2023-04-24T11:04:30;13.98;;;8.07;;
59302;SDS011;45074;52.764;6.896;2023-04-24T11:06:57;14.18;;;7.20;;
59302;SDS011;45074;52.764;6.896;2023-04-24T11:09:26;14.05;;;6.25;;
59302;SDS011;45074;52.764;6.896;2023-04-24T11:12:02;16.35;;;6.10;;
59302;SDS011;45074;52.764;6.896;2023-04-24T11:14:35;15.65;;;5.68;;
59302;SDS011;45074;52.764;6.896;2023-04-24T11:17:57;11.68;;;5.25;;
59302;SDS011;45074;52.764;6.896;2023-04-24T11:20:22;12.00;;;5.10;;
59302;SDS011;45074;52.764;6.896;2023-04-24T11:22:50;14.00;;;5.10;;
59302;SDS011;45074;52.764;6.896;2023-04-24T11:25:19;12.40;;;5.38;;
59302;SDS011;45074;52.764;6.896;2023-04-24T11:27:47;12.93;;;5.32;;
59302;SDS011;45074;52.764;6.896;2023-04-24T11:30:18;11.25;;;4.90;;
59302;SDS011;45074;52.764;6.896;2023-04-24T11:32:47;11.03;;;4.80;;
59302;SDS011;45074;52.764;6.896;2023-04-24T11:35:18;11.32;;;4.60;;
59302;SDS011;45074;52.764;6.896;2023-04-24T11:37:49;14.70;;;5.20;;
59302;SDS011;45074;52.764;6.896;2023-04-24T11:40:17;12.07;;;4.63;;
59302;SDS011;45074;52.764;6.896;2023-04-24T11:42:48;10.88;;;4.70;;
59302;SDS011;45074;52.764;6.896;2023-04-24T11:45:16;10.30;;;4.57;;
59302;SDS011;45074;52.764;6.896;2023-04-24T11:47:43;11.88;;;3.85;;
59302;SDS011;45074;52.764;6.896;2023-04-24T11:50:14;10.00;;;3.95;;
59302;SDS011;45074;52.764;6.896;2023-04-24T11:52:40;8.55;;;3.67;;
59302;SDS011;45074;52.764;6.896;2023-04-24T11:55:23;10.52;;;3.95;;
59302;SDS011;45074;52.764;6.896;2023-04-24T11:57:53;11.10;;;3.40;;
59302;SDS011;45074;52.764;6.896;2023-04-24T12:00:22;9.30;;;3.20;;
59302;SDS011;45074;52.764;6.896;2023-04-24T12:02:48;8.73;;;3.22;;
59302;SDS011;45074;52.764;6.896;2023-04-24T12:05:21;12.80;;;3.53;;
59302;SDS011;45074;52.764;6.896;2023-04-24T12:07:52;10.02;;;3.60;;
59302;SDS011;45074;52.764;6.896;2023-04-24T12:10:21;9.32;;;3.30;;
59302;SDS011;45074;52.764;6.896;2023-04-24T12:12:49;13.60;;;3.53;;
59302;SDS011;45074;52.764;6.896;2023-04-24T12:15:16;11.57;;;3.20;;
59302;SDS011;45074;52.764;6.896;2023-04-24T12:17:44;12.85;;;3.28;;
59302;SDS011;45074;52.764;6.896;2023-04-24T12:20:10;9.13;;;2.95;;
59302;SDS011;45074;52.764;6.896;2023-04-24T12:22:46;11.20;;;3.40;;
59302;SDS011;45074;52.764;6.896;2023-04-24T12:25:16;10.98;;;3.50;;
59302;SDS011;45074;52.764;6.896;2023-04-24T12:27:44;10.18;;;3.00;;
59302;SDS011;45074;52.764;6.896;2023-04-24T12:30:14;7.82;;;2.53;;
59302;SDS011;45074;52.764;6.896;2023-04-24T12:32:45;8.77;;;2.58;;
59302;SDS011;45074;52.764;6.896;2023-04-24T12:37:37;7.07;;;2.70;;
59302;SDS011;45074;52.764;6.896;2023-04-24T12:40:11;7.07;;;2.60;;
59302;SDS011;45074;52.764;6.896;2023-04-24T12:42:44;8.18;;;2.92;;
59302;SDS011;45074;52.764;6.896;2023-04-24T12:45:10;7.07;;;2.53;;
59302;SDS011;45074;52.764;6.896;2023-04-24T12:47:37;8.48;;;2.97;;
59302;SDS011;45074;52.764;6.896;2023-04-24T12:50:04;7.80;;;2.60;;
59302;SDS011;45074;52.764;6.896;2023-04-24T12:52:31;8.13;;;2.58;;
59302;SDS011;45074;52.764;6.896;2023-04-24T12:54:58;6.88;;;3.00;;
59302;SDS011;45074;52.764;6.896;2023-04-24T12:57:25;8.68;;;2.95;;
59302;SDS011;45074;52.764;6.896;2023-04-24T12:59:55;7.75;;;3.03;;
59302;SDS011;45074;52.764;6.896;2023-04-24T13:02:22;8.27;;;2.78;;
59302;SDS011;45074;52.764;6.896;2023-04-24T13:04:48;7.10;;;2.85;;
59302;SDS011;45074;52.764;6.896;2023-04-24T13:07:14;9.60;;;3.40;;
59302;SDS011;45074;52.764;6.896;2023-04-24T13:09:41;8.52;;;2.70;;
59302;SDS011;45074;52.764;6.896;2023-04-24T13:12:07;6.40;;;2.40;;
59302;SDS011;45074;52.764;6.896;2023-04-24T13:14:34;5.60;;;2.33;;
59302;SDS011;45074;52.764;6.896;2023-04-24T13:17:00;5.25;;;1.90;;
59302;SDS011;45074;52.764;6.896;2023-04-24T13:19:26;4.30;;;1.95;;
59302;SDS011;45074;52.764;6.896;2023-04-24T13:21:52;6.35;;;1.95;;
59302;SDS011;45074;52.764;6.896;2023-04-24T13:24:18;5.97;;;1.63;;
59302;SDS011;45074;52.764;6.896;2023-04-24T13:26:45;4.35;;;1.63;;
59302;SDS011;45074;52.764;6.896;2023-04-24T13:29:11;4.90;;;1.58;;
59302;SDS011;45074;52.764;6.896;2023-04-24T13:31:37;5.32;;;1.70;;
59302;SDS011;45074;52.764;6.896;2023-04-24T13:34:03;4.47;;;1.42;;
59302;SDS011;45074;52.764;6.896;2023-04-24T13:36:29;2.63;;;1.30;;
59302;SDS011;45074;52.764;6.896;2023-04-24T13:38:56;6.47;;;1.60;;
59302;SDS011;45074;52.764;6.896;2023-04-24T13:41:22;6.30;;;2.00;;
59302;SDS011;45074;52.764;6.896;2023-04-24T13:43:48;5.22;;;1.70;;
59302;SDS011;45074;52.764;6.896;2023-04-24T13:46:14;6.28;;;1.60;;
59302;SDS011;45074;52.764;6.896;2023-04-24T13:48:40;7.57;;;1.80;;
59302;SDS011;45074;52.764;6.896;2023-04-24T13:51:06;8.57;;;1.73;;
59302;SDS011;45074;52.764;6.896;2023-04-24T13:53:32;4.90;;;1.75;;
59302;SDS011;45074;52.764;6.896;2023-04-24T13:56:01;4.75;;;1.90;;
59302;SDS011;45074;52.764;6.896;2023-04-24T13:58:27;6.28;;;1.80;;
59302;SDS011;45074;52.764;6.896;2023-04-24T14:00:53;8.73;;;2.20;;
59302;SDS011;45074;52.764;6.896;2023-04-24T14:03:19;6.50;;;1.90;;
59302;SDS011;45074;52.764;6.896;2023-04-24T14:05:45;6.75;;;2.00;;
59302;SDS011;45074;52.764;6.896;2023-04-24T14:08:11;6.55;;;1.90;;
59302;SDS011;45074;52.764;6.896;2023-04-24T14:10:37;6.00;;;1.75;;
59302;SDS011;45074;52.764;6.896;2023-04-24T14:13:03;6.43;;;1.80;;
59302;SDS011;45074;52.764;6.896;2023-04-24T14:15:30;5.78;;;1.88;;
59302;SDS011;45074;52.764;6.896;2023-04-24T14:17:56;5.57;;;1.67;;
59302;SDS011;45074;52.764;6.896;2023-04-24T14:20:22;6.18;;;1.70;;
59302;SDS011;45074;52.764;6.896;2023-04-24T14:22:48;4.72;;;1.80;;
59302;SDS011;45074;52.764;6.896;2023-04-24T14:25:15;7.05;;;2.20;;
59302;SDS011;45074;52.764;6.896;2023-04-24T14:27:41;8.50;;;2.00;;
59302;SDS011;45074;52.764;6.896;2023-04-24T14:30:07;6.82;;;1.60;;
59302;SDS011;45074;52.764;6.896;2023-04-24T14:32:33;4.53;;;1.58;;
59302;SDS011;45074;52.764;6.896;2023-04-24T14:34:59;7.72;;;2.20;;
59302;SDS011;45074;52.764;6.896;2023-04-24T14:37:25;6.38;;;1.75;;
59302;SDS011;45074;52.764;6.896;2023-04-24T14:39:51;4.75;;;1.83;;
59302;SDS011;45074;52.764;6.896;2023-04-24T14:42:17;7.60;;;2.28;;
59302;SDS011;45074;52.764;6.896;2023-04-24T14:44:43;7.88;;;2.08;;
59302;SDS011;45074;52.764;6.896;2023-04-24T14:47:09;8.02;;;2.03;;
59302;SDS011;45074;52.764;6.896;2023-04-24T14:49:35;8.23;;;2.78;;
59302;SDS011;45074;52.764;6.896;2023-04-24T14:52:02;8.38;;;2.60;;